createdAt,value
2023-09-13T00:01:12.446Z,98634.16
2023-09-13T00:03:39.967Z,98630.47
2023-09-13T00:06:07.304Z,98637.94
2023-09-13T00:08:34.568Z,98640.31
2023-09-13T00:11:05.827Z,98641.84
2023-09-13T00:13:34.556Z,98647.41
2023-09-13T00:16:03.865Z,98650.84
2023-09-13T00:18:31.073Z,98650.00
2023-09-13T00:20:58.200Z,98641.97
2023-09-13T00:23:25.589Z,98643.22
2023-09-13T00:25:52.873Z,98642.59
2023-09-13T00:28:20.085Z,98641.53
2023-09-13T00:30:48.228Z,98641.66
2023-09-13T00:33:15.527Z,98645.41
2023-09-13T00:35:42.794Z,98649.88
2023-09-13T00:38:10.013Z,98652.84
2023-09-13T00:40:37.273Z,98653.69
2023-09-13T00:43:04.748Z,98653.00
2023-09-13T00:45:35.223Z,98644.53
2023-09-13T00:48:03.350Z,98635.78
2023-09-13T00:50:43.697Z,98604.25
2023-09-13T00:53:19.986Z,98566.63
2023-09-13T00:55:51.376Z,98558.53
2023-09-13T00:58:22.954Z,98546.03
2023-09-13T01:00:54.782Z,98544.91
2023-09-13T01:03:24.326Z,98547.56
2023-09-13T01:05:55.747Z,98535.25
2023-09-13T01:08:23.996Z,98545.66
2023-09-13T01:10:51.225Z,98559.09
2023-09-13T01:13:18.517Z,98558.53
2023-09-13T01:16:20.325Z,98533.06
2023-09-13T01:19:06.173Z,98520.84
2023-09-13T01:22:08.502Z,98513.28
2023-09-13T01:25:28.542Z,98517.09
2023-09-13T01:29:01.212Z,98541.41
2023-09-13T01:31:29.475Z,98561.69
2023-09-13T01:33:56.903Z,98577.63
2023-09-13T01:36:25.533Z,98586.50
2023-09-13T01:38:52.777Z,98583.81
2023-09-13T01:41:37.266Z,98586.59
2023-09-13T01:44:07.708Z,98587.59
2023-09-13T01:46:43.865Z,98588.66
2023-09-13T01:49:14.566Z,98583.47
2023-09-13T01:51:42.975Z,98578.09
2023-09-13T01:54:11.525Z,98588.13
2023-09-13T01:56:38.857Z,98590.38
2023-09-13T01:59:06.029Z,98578.72
2023-09-13T02:01:33.502Z,98577.22
2023-09-13T02:04:00.786Z,98578.03
2023-09-13T02:06:28.195Z,98575.00
2023-09-13T02:08:55.379Z,98573.09
2023-09-13T02:11:22.575Z,98567.59
2023-09-13T02:13:51.809Z,98559.69
2023-09-13T02:16:22.761Z,98569.09
2023-09-13T02:18:50.192Z,98580.91
2023-09-13T02:21:17.681Z,98587.16
2023-09-13T02:23:46.163Z,98585.72
2023-09-13T02:26:25.178Z,98588.50
2023-09-13T02:28:54.563Z,98590.38
2023-09-13T02:31:29.304Z,98584.88
2023-09-13T02:33:56.861Z,98581.38
2023-09-13T02:36:24.318Z,98582.34
2023-09-13T02:38:53.898Z,98580.00
2023-09-13T02:41:21.224Z,98572.88
2023-09-13T02:43:48.448Z,98580.41
2023-09-13T02:46:16.368Z,98596.84
2023-09-13T02:48:43.850Z,98608.81
2023-09-13T02:51:17.098Z,98621.47
2023-09-13T02:53:44.687Z,98622.13
2023-09-13T02:56:12.672Z,98629.72
2023-09-13T02:58:39.943Z,98644.50
2023-09-13T03:01:12.668Z,98642.41
2023-09-13T03:03:42.929Z,98637.78
2023-09-13T03:06:15.026Z,98637.41
2023-09-13T03:08:44.538Z,98634.47
2023-09-13T03:11:16.800Z,98637.16
2023-09-13T03:13:46.006Z,98621.66
2023-09-13T03:16:19.725Z,98623.44
2023-09-13T03:18:51.365Z,98618.13
2023-09-13T03:21:22.955Z,98620.47
2023-09-13T03:23:50.939Z,98618.50
2023-09-13T03:26:27.827Z,98633.13
2023-09-13T03:28:57.696Z,98622.16
2023-09-13T03:31:28.292Z,98622.09
2023-09-13T03:34:00.235Z,98636.28
2023-09-13T03:36:31.523Z,98632.94
2023-09-13T03:39:00.989Z,98643.97
2023-09-13T03:41:31.716Z,98643.06
2023-09-13T03:43:59.089Z,98643.44
2023-09-13T03:46:28.663Z,98647.28
2023-09-13T03:48:57.927Z,98647.44
2023-09-13T03:51:25.390Z,98652.56
2023-09-13T03:53:52.789Z,98647.75
2023-09-13T03:56:20.039Z,98659.25
2023-09-13T03:58:48.066Z,98661.44
2023-09-13T04:01:15.587Z,98665.75
2023-09-13T04:03:43.500Z,98643.44
2023-09-13T04:06:11.882Z,98642.97
2023-09-13T04:08:39.174Z,98639.44
2023-09-13T04:11:06.747Z,98640.94
2023-09-13T04:13:34.108Z,98636.31
2023-09-13T04:16:06.666Z,98634.31
2023-09-13T04:18:34.410Z,98638.63
2023-09-13T04:21:01.737Z,98633.81
2023-09-13T04:23:29.841Z,98639.81
2023-09-13T04:25:58.089Z,98644.28
2023-09-13T04:28:25.834Z,98633.97
2023-09-13T04:30:53.456Z,98651.28
2023-09-13T04:33:49.879Z,98639.78
2023-09-13T04:36:20.107Z,98644.28
2023-09-13T04:38:49.414Z,98636.78
2023-09-13T04:41:18.188Z,98643.09
2023-09-13T04:43:46.332Z,98638.13
2023-09-13T04:46:15.686Z,98659.75
2023-09-13T04:48:43.020Z,98662.91
2023-09-13T04:51:12.094Z,98664.78
2023-09-13T04:53:40.679Z,98679.41
2023-09-13T04:56:10.289Z,98675.75
2023-09-13T04:58:44.238Z,98674.41
2023-09-13T05:01:11.672Z,98679.56
2023-09-13T05:03:39.092Z,98686.03
2023-09-13T05:06:08.980Z,98675.59
2023-09-13T05:08:39.072Z,98679.84
2023-09-13T05:11:06.725Z,98681.72
2023-09-13T05:13:34.278Z,98673.19
2023-09-13T05:16:01.631Z,98682.41
2023-09-13T05:18:28.832Z,98683.91
2023-09-13T05:20:56.086Z,98676.88
2023-09-13T05:23:23.511Z,98678.25
2023-09-13T05:25:50.878Z,98684.63
2023-09-13T05:28:18.443Z,98673.63
2023-09-13T05:30:52.442Z,98685.16
2023-09-13T05:33:19.899Z,98691.59
2023-09-13T05:35:47.107Z,98700.75
2023-09-13T05:38:14.267Z,98710.59
2023-09-13T05:40:41.494Z,98719.59
2023-09-13T05:43:08.851Z,98718.16
2023-09-13T05:45:36.204Z,98718.41
2023-09-13T05:48:04.252Z,98715.97
2023-09-13T05:50:31.557Z,98729.91
2023-09-13T05:52:59.255Z,98726.47
2023-09-13T05:55:26.634Z,98735.72
2023-09-13T05:57:53.875Z,98733.50
2023-09-13T06:00:21.257Z,98731.16
2023-09-13T06:02:48.427Z,98725.25
2023-09-13T06:05:15.670Z,98721.97
2023-09-13T06:07:43.498Z,98725.25
2023-09-13T06:10:12.397Z,98738.00
2023-09-13T06:12:39.824Z,98727.88
2023-09-13T06:15:09.148Z,98734.41
2023-09-13T06:17:38.218Z,98734.97
2023-09-13T06:20:07.024Z,98729.47
2023-09-13T06:22:34.300Z,98745.56
2023-09-13T06:25:04.512Z,98744.53
2023-09-13T06:27:35.070Z,98755.63
2023-09-13T06:30:02.616Z,98768.78
2023-09-13T06:32:40.556Z,98769.91
2023-09-13T06:35:16.137Z,98772.63
2023-09-13T06:37:47.024Z,98764.50
2023-09-13T06:40:16.878Z,98768.66
2023-09-13T06:42:59.764Z,98765.03
2023-09-13T06:45:28.635Z,98774.44
2023-09-13T06:47:59.093Z,98772.44
2023-09-13T06:50:52.910Z,98782.34
2023-09-13T06:55:45.372Z,98786.38
2023-09-13T07:00:48.708Z,98787.31
2023-09-13T07:03:26.864Z,98780.91
2023-09-13T07:05:54.628Z,98778.97
2023-09-13T07:08:21.947Z,98802.75
2023-09-13T07:10:49.295Z,98798.09
2023-09-13T07:13:16.512Z,98802.56
2023-09-13T07:15:43.696Z,98800.94
2023-09-13T07:18:10.905Z,98796.09
2023-09-13T07:20:38.212Z,98801.97
2023-09-13T07:23:05.674Z,98803.84
2023-09-13T07:25:32.984Z,98806.47
2023-09-13T07:28:01.317Z,98807.78
2023-09-13T07:30:28.919Z,98807.94
2023-09-13T07:32:56.087Z,98818.16
2023-09-13T07:35:24.570Z,98817.63
2023-09-13T07:37:52.122Z,98811.19
2023-09-13T07:40:19.454Z,98807.69
2023-09-13T07:42:46.675Z,98809.94
2023-09-13T07:45:13.892Z,98805.06
2023-09-13T07:47:41.216Z,98814.34
2023-09-13T07:50:39.894Z,98821.69
2023-09-13T07:53:08.502Z,98827.47
2023-09-13T07:55:36.637Z,98821.31
2023-09-13T07:58:06.491Z,98825.44
2023-09-13T08:00:35.229Z,98820.22
2023-09-13T08:03:05.296Z,98830.41
2023-09-13T08:05:32.826Z,98832.38
2023-09-13T08:08:00.720Z,98834.88
2023-09-13T08:10:28.275Z,98832.84
2023-09-13T08:12:55.797Z,98837.91
2023-09-13T08:15:30.786Z,98832.53
2023-09-13T08:18:10.718Z,98843.44
2023-09-13T08:20:38.079Z,98846.75
2023-09-13T08:23:05.421Z,98850.28
2023-09-13T08:25:32.927Z,98847.28
2023-09-13T08:28:00.335Z,98854.50
2023-09-13T08:30:27.581Z,98855.50
2023-09-13T08:32:54.799Z,98856.91
2023-09-13T08:35:22.081Z,98857.97
2023-09-13T08:37:50.207Z,98868.69
2023-09-13T08:40:17.890Z,98859.66
2023-09-13T08:42:46.764Z,98862.16
2023-09-13T08:45:15.190Z,98863.63
2023-09-13T08:47:58.045Z,98868.59
2023-09-13T08:50:30.004Z,98880.44
2023-09-13T08:53:03.822Z,98882.78
2023-09-13T08:55:35.119Z,98885.19
2023-09-13T08:58:04.135Z,98879.84
2023-09-13T09:00:41.285Z,98883.13
2023-09-13T09:03:13.981Z,98881.06
2023-09-13T09:05:42.700Z,98884.38
2023-09-13T09:08:11.406Z,98891.22
2023-09-13T09:10:39.059Z,98888.06
2023-09-13T09:13:11.447Z,98887.63
2023-09-13T09:15:41.268Z,98894.28
2023-09-13T09:18:13.294Z,98894.59
2023-09-13T09:20:42.709Z,98893.31
2023-09-13T09:23:10.958Z,98902.38
2023-09-13T09:25:41.132Z,98899.97
2023-09-13T09:28:08.752Z,98897.03
2023-09-13T09:30:36.347Z,98906.44
2023-09-13T09:33:05.990Z,98906.75
2023-09-13T09:35:36.204Z,98907.28
2023-09-13T09:38:07.739Z,98911.81
2023-09-13T09:40:39.543Z,98908.75
2023-09-13T09:43:09.246Z,98921.59
2023-09-13T09:45:36.538Z,98918.31
2023-09-13T09:48:04.482Z,98914.19
2023-09-13T09:50:34.760Z,98913.25
2023-09-13T09:53:10.835Z,98910.03
2023-09-13T09:55:38.919Z,98915.94
2023-09-13T09:58:06.533Z,98921.19
2023-09-13T10:00:53.626Z,98915.53
2023-09-13T10:03:23.899Z,98919.66
2023-09-13T10:06:07.750Z,98916.41
2023-09-13T10:08:48.629Z,98921.19
2023-09-13T10:11:21.091Z,98908.16
2023-09-13T10:13:49.345Z,98923.81
2023-09-13T10:16:19.014Z,98923.75
2023-09-13T10:18:51.856Z,98924.88
2023-09-13T10:21:27.877Z,98918.19
2023-09-13T10:24:05.579Z,98923.00
2023-09-13T10:26:34.123Z,98919.84
2023-09-13T10:29:19.002Z,98923.53
2023-09-13T10:31:52.966Z,98917.50
2023-09-13T10:34:28.057Z,98915.47
2023-09-13T10:37:21.127Z,98913.13
2023-09-13T10:39:58.779Z,98916.88
2023-09-13T10:42:27.314Z,98914.50
2023-09-13T10:44:57.285Z,98923.88
2023-09-13T10:47:25.453Z,98915.38
2023-09-13T10:49:55.102Z,98930.34
2023-09-13T10:52:22.824Z,98921.25
2023-09-13T10:54:53.086Z,98916.16
2023-09-13T10:57:22.921Z,98920.09
2023-09-13T10:59:53.809Z,98921.28
2023-09-13T11:02:24.048Z,98919.91
2023-09-13T11:04:52.824Z,98919.00
2023-09-13T11:07:20.295Z,98917.41
2023-09-13T11:09:47.711Z,98911.91
2023-09-13T11:12:14.980Z,98920.06
2023-09-13T11:14:51.433Z,98918.91
2023-09-13T11:17:41.509Z,98919.41
2023-09-13T11:20:30.016Z,98912.63
2023-09-13T11:23:33.726Z,98921.19
2023-09-13T11:26:08.606Z,98920.91
2023-09-13T11:28:43.438Z,98922.91
2023-09-13T11:31:15.738Z,98915.34
2023-09-13T11:33:59.833Z,98919.34
2023-09-13T11:36:32.420Z,98921.03
2023-09-13T11:39:02.929Z,98918.72
2023-09-13T11:44:23.951Z,98922.44
2023-09-13T11:46:58.734Z,98925.75
2023-09-13T11:49:37.326Z,98920.81
2023-09-13T11:52:25.418Z,98918.34
2023-09-13T11:55:05.544Z,98924.50
2023-09-13T11:57:58.711Z,98909.16
2023-09-13T12:00:32.123Z,98912.56
2023-09-13T12:03:01.327Z,98915.84
2023-09-13T12:05:45.325Z,98913.34
2023-09-13T12:08:30.770Z,98915.72
2023-09-13T12:11:08.220Z,98923.69
2023-09-13T12:16:21.951Z,98913.25
2023-09-13T12:18:50.127Z,98916.41
2023-09-13T12:21:18.374Z,98909.75
2023-09-13T12:23:49.790Z,98910.06
2023-09-13T12:26:19.116Z,98902.22
2023-09-13T12:28:49.730Z,98899.53
2023-09-13T12:31:18.314Z,98893.00
2023-09-13T12:33:55.006Z,98895.63
2023-09-13T12:36:22.839Z,98886.78
2023-09-13T12:38:50.652Z,98893.00
2023-09-13T12:41:22.631Z,98898.94
2023-09-13T12:43:52.208Z,98904.34
2023-09-13T12:46:27.133Z,98905.44
2023-09-13T12:48:58.793Z,98905.47
2023-09-13T12:51:33.640Z,98912.25
2023-09-13T12:54:02.058Z,98912.38
2023-09-13T12:56:34.512Z,98901.56
2023-09-13T12:59:02.270Z,98913.09
2023-09-13T13:01:36.698Z,98909.84
2023-09-13T13:04:12.626Z,98905.78
2023-09-13T13:07:02.599Z,98901.06
2023-09-13T13:09:31.111Z,98899.69
2023-09-13T13:11:58.586Z,98894.63
2023-09-13T13:14:30.247Z,98895.63
2023-09-13T13:17:01.236Z,98892.75
2023-09-13T13:22:11.706Z,98891.03
2023-09-13T13:24:40.701Z,98890.31
2023-09-13T13:27:08.416Z,98886.97
2023-09-13T13:29:38.166Z,98881.97
2023-09-13T13:32:07.133Z,98896.53
2023-09-13T13:34:34.710Z,98880.22
2023-09-13T13:37:02.007Z,98878.69
2023-09-13T13:39:29.717Z,98882.91
2023-09-13T13:41:57.091Z,98884.16
2023-09-13T13:44:24.378Z,98881.84
2023-09-13T13:46:51.693Z,98882.72
2023-09-13T13:49:19.912Z,98884.31
2023-09-13T13:51:51.620Z,98878.47
2023-09-13T13:54:20.505Z,98869.41
2023-09-13T13:56:48.269Z,98869.28
2023-09-13T13:59:16.361Z,98867.72
2023-09-13T14:01:45.278Z,98874.72
2023-09-13T14:04:12.548Z,98873.50
2023-09-13T14:06:46.008Z,98877.69
2023-09-13T14:09:19.886Z,98873.88
2023-09-13T14:11:47.966Z,98873.25
2023-09-13T14:14:19.388Z,98871.09
2023-09-13T14:16:50.133Z,98854.38
2023-09-13T14:19:18.070Z,98867.03
2023-09-13T14:21:45.664Z,98870.75
2023-09-13T14:24:13.232Z,98865.03
2023-09-13T14:26:41.147Z,98869.94
2023-09-13T14:29:08.845Z,98868.56
2023-09-13T14:31:38.608Z,98874.25
2023-09-13T14:34:07.621Z,98886.09
2023-09-13T14:36:35.452Z,98873.19
2023-09-13T14:39:03.015Z,98888.06
2023-09-13T14:41:30.712Z,98879.06
2023-09-13T14:43:57.931Z,98874.03
2023-09-13T14:46:25.388Z,98882.44
2023-09-13T14:48:54.158Z,98874.34
2023-09-13T14:51:21.924Z,98877.69
2023-09-13T14:53:49.135Z,98874.69
2023-09-13T14:56:16.630Z,98874.28
2023-09-13T14:58:44.177Z,98879.59
2023-09-13T15:01:12.188Z,98883.69
2023-09-13T15:03:39.725Z,98884.41
2023-09-13T15:06:07.025Z,98877.00
2023-09-13T15:08:34.216Z,98888.88
2023-09-13T15:11:01.948Z,98887.34
2023-09-13T15:13:29.218Z,98887.00
2023-09-13T15:15:56.541Z,98883.44
2023-09-13T15:18:24.054Z,98886.09
2023-09-13T15:20:51.230Z,98887.06
2023-09-13T15:23:18.385Z,98888.81
2023-09-13T15:25:45.604Z,98879.63
2023-09-13T15:28:14.123Z,98879.53
2023-09-13T15:30:41.688Z,98882.75
2023-09-13T15:33:09.056Z,98881.84
2023-09-13T15:35:36.452Z,98884.69
2023-09-13T15:38:04.049Z,98874.66
2023-09-13T15:40:31.730Z,98886.25
2023-09-13T15:42:59.778Z,98884.84
2023-09-13T15:45:27.348Z,98884.91
2023-09-13T15:47:56.890Z,98890.44
2023-09-13T15:50:24.211Z,98877.31
2023-09-13T15:52:52.225Z,98883.59
2023-09-13T15:55:19.768Z,98880.88
2023-09-13T15:57:47.100Z,98886.34
2023-09-13T16:00:14.562Z,98888.16
2023-09-13T16:02:41.844Z,98892.97
2023-09-13T16:05:10.032Z,98897.75
2023-09-13T16:07:40.094Z,98891.16
2023-09-13T16:10:09.260Z,98895.19
2023-09-13T16:12:36.642Z,98889.63
2023-09-13T16:15:04.740Z,98895.75
2023-09-13T16:17:31.937Z,98898.44
2023-09-13T16:19:59.184Z,98897.63
2023-09-13T16:22:26.610Z,98895.53
2023-09-13T16:24:54.135Z,98893.41
2023-09-13T16:27:21.406Z,98894.84
2023-09-13T16:29:48.662Z,98882.94
2023-09-13T16:32:18.709Z,98887.97
2023-09-13T16:34:46.022Z,98895.59
2023-09-13T16:37:13.355Z,98899.38
2023-09-13T16:39:41.800Z,98902.84
2023-09-13T16:42:09.437Z,98896.94
2023-09-13T16:44:36.600Z,98905.16
2023-09-13T16:47:04.116Z,98895.28
2023-09-13T16:49:31.590Z,98892.13
2023-09-13T16:51:59.281Z,98897.78
2023-09-13T16:54:28.709Z,98905.31
2023-09-13T16:56:56.051Z,98907.38
2023-09-13T16:59:23.404Z,98912.72
2023-09-13T17:01:50.832Z,98912.97
2023-09-13T17:04:18.242Z,98912.88
2023-09-13T17:06:45.708Z,98918.75
2023-09-13T17:09:13.977Z,98915.66
2023-09-13T17:11:41.722Z,98916.13
2023-09-13T17:14:09.147Z,98924.25
2023-09-13T17:16:36.379Z,98925.84
2023-09-13T17:19:03.710Z,98929.38
2023-09-13T17:21:31.989Z,98937.56
2023-09-13T17:23:59.424Z,98943.97
2023-09-13T17:26:26.606Z,98940.34
2023-09-13T17:28:53.811Z,98939.28
2023-09-13T17:31:21.560Z,98939.81
2023-09-13T17:33:48.924Z,98937.84
2023-09-13T17:36:24.800Z,98935.94
2023-09-13T17:39:00.004Z,98943.84
2023-09-13T17:41:27.231Z,98950.88
2023-09-13T17:43:54.415Z,98950.84
2023-09-13T17:46:21.842Z,98952.50
2023-09-13T17:48:49.157Z,98961.91
2023-09-13T17:51:16.601Z,98975.31
2023-09-13T17:53:43.980Z,98970.19
2023-09-13T17:56:12.242Z,98969.34
2023-09-13T17:58:39.572Z,98964.50
2023-09-13T18:01:06.815Z,98965.31
2023-09-13T18:03:35.371Z,98976.03
2023-09-13T18:06:04.305Z,98975.97
2023-09-13T18:08:31.853Z,98981.69
2023-09-13T18:11:00.792Z,98982.91
2023-09-13T18:13:28.093Z,98988.13
2023-09-13T18:15:59.082Z,98987.03
2023-09-13T18:18:29.642Z,98985.50
2023-09-13T18:20:57.917Z,98987.47
2023-09-13T18:23:25.289Z,98998.66
2023-09-13T18:25:52.696Z,98990.09
2023-09-13T18:28:19.904Z,98998.84
2023-09-13T18:30:47.436Z,99004.25
2023-09-13T18:33:14.843Z,98999.16
2023-09-13T18:35:42.079Z,98997.47
2023-09-13T18:38:09.758Z,99006.16
2023-09-13T18:40:38.529Z,99001.59
2023-09-13T18:43:06.469Z,99001.78
2023-09-13T18:45:38.220Z,99005.09
2023-09-13T18:48:07.128Z,99009.22
2023-09-13T18:50:35.777Z,99015.50
2023-09-13T18:53:04.728Z,99019.25
2023-09-13T18:55:32.180Z,99031.78
2023-09-13T18:57:59.407Z,99026.94
2023-09-13T19:00:27.564Z,99027.63
2023-09-13T19:02:56.910Z,99031.03
2023-09-13T19:05:26.648Z,99035.22
2023-09-13T19:07:53.892Z,99038.66
2023-09-13T19:10:21.289Z,99032.50
2023-09-13T19:12:50.252Z,99034.69
2023-09-13T19:15:17.912Z,99043.91
2023-09-13T19:17:45.172Z,99044.03
2023-09-13T19:20:12.533Z,99045.41
2023-09-13T19:22:39.721Z,99044.03
2023-09-13T19:25:07.940Z,99046.38
2023-09-13T19:27:35.137Z,99054.53
2023-09-13T19:30:02.301Z,99061.63
2023-09-13T19:32:29.601Z,99063.03
2023-09-13T19:34:56.872Z,99060.69
2023-09-13T19:37:24.412Z,99068.13
2023-09-13T19:39:51.677Z,99057.34
2023-09-13T19:42:18.938Z,99069.44
2023-09-13T19:44:46.219Z,99073.22
2023-09-13T19:47:13.989Z,99075.34
2023-09-13T19:49:41.315Z,99078.53
2023-09-13T19:52:08.485Z,99078.53
2023-09-13T19:54:38.669Z,99082.66
2023-09-13T19:57:08.272Z,99083.19
2023-09-13T19:59:38.538Z,99090.50
2023-09-13T20:02:07.244Z,99089.94
2023-09-13T20:04:34.527Z,99089.16
2023-09-13T20:07:01.720Z,99094.03
2023-09-13T20:09:30.804Z,99096.38
2023-09-13T20:12:05.130Z,99103.22
2023-09-13T20:14:32.433Z,99106.34
2023-09-13T20:16:59.997Z,99103.47
2023-09-13T20:19:27.249Z,99109.28
2023-09-13T20:21:54.479Z,99109.34
2023-09-13T20:24:21.786Z,99113.03
2023-09-13T20:26:51.031Z,99114.19
2023-09-13T20:29:18.230Z,99120.38
2023-09-13T20:31:45.445Z,99119.31
2023-09-13T20:34:12.923Z,99121.25
2023-09-13T20:36:40.096Z,99124.19
2023-09-13T20:39:07.410Z,99130.75
2023-09-13T20:41:35.915Z,99122.81
2023-09-13T20:44:04.049Z,99119.72
2023-09-13T20:46:35.104Z,99127.38
2023-09-13T20:49:04.810Z,99133.16
2023-09-13T20:51:32.066Z,99128.38
2023-09-13T20:53:59.285Z,99137.19
2023-09-13T20:56:26.750Z,99137.13
2023-09-13T20:58:54.246Z,99129.94
2023-09-13T21:01:21.601Z,99145.16
2023-09-13T21:03:49.740Z,99144.44
2023-09-13T21:06:17.199Z,99146.63
2023-09-13T21:08:44.837Z,99147.75
2023-09-13T21:11:12.883Z,99149.06
2023-09-13T21:13:40.181Z,99150.84
2023-09-13T21:16:09.232Z,99145.66
2023-09-13T21:18:37.000Z,99158.41
2023-09-13T21:21:04.660Z,99150.16
2023-09-13T21:23:31.886Z,99150.38
2023-09-13T21:25:59.101Z,99148.94
2023-09-13T21:28:26.328Z,99140.25
2023-09-13T21:30:57.961Z,99147.34
2023-09-13T21:33:25.368Z,99147.72
2023-09-13T21:36:00.662Z,99147.53
2023-09-13T21:38:28.569Z,99141.84
2023-09-13T21:40:56.097Z,99140.69
2023-09-13T21:43:23.769Z,99142.72
2023-09-13T21:45:51.665Z,99148.47
2023-09-13T21:48:19.049Z,99150.44
2023-09-13T21:50:48.324Z,99155.22
2023-09-13T21:53:17.130Z,99148.38
2023-09-13T21:55:45.835Z,99143.94
2023-09-13T21:58:20.777Z,99152.16
2023-09-13T22:00:50.657Z,99155.75
2023-09-13T22:03:18.245Z,99154.09
2023-09-13T22:05:45.561Z,99155.00
2023-09-13T22:08:12.948Z,99161.03
2023-09-13T22:10:40.200Z,99162.19
2023-09-13T22:13:07.654Z,99159.53
2023-09-13T22:15:35.114Z,99152.41
2023-09-13T22:18:02.444Z,99151.78
2023-09-13T22:20:29.732Z,99161.75
2023-09-13T22:22:57.102Z,99164.91
2023-09-13T22:25:24.389Z,99164.34
2023-09-13T22:27:51.702Z,99172.28
2023-09-13T22:30:19.214Z,99163.72
2023-09-13T22:32:46.626Z,99166.91
2023-09-13T22:35:14.073Z,99172.78
2023-09-13T22:37:41.631Z,99169.75
2023-09-13T22:40:10.994Z,99178.13
2023-09-13T22:42:38.338Z,99171.19
2023-09-13T22:45:06.338Z,99172.66
2023-09-13T22:47:33.664Z,99178.19
2023-09-13T22:50:00.968Z,99176.03
2023-09-13T22:52:28.259Z,99177.66
2023-09-13T22:54:56.583Z,99174.53
2023-09-13T22:57:23.966Z,99178.44
2023-09-13T22:59:51.349Z,99185.66
2023-09-13T23:02:19.145Z,99181.84
2023-09-13T23:04:48.386Z,99187.91
2023-09-13T23:07:16.489Z,99188.34
2023-09-13T23:09:44.561Z,99180.03
2023-09-13T23:12:12.050Z,99188.34
2023-09-13T23:14:39.189Z,99179.88
2023-09-13T23:17:07.562Z,99181.50
2023-09-13T23:19:37.871Z,99183.13
2023-09-13T23:22:05.225Z,99174.44
2023-09-13T23:24:36.089Z,99173.38
2023-09-13T23:27:03.724Z,99167.59
2023-09-13T23:29:31.062Z,99181.03
2023-09-13T23:31:59.452Z,99180.25
2023-09-13T23:34:26.589Z,99173.59
2023-09-13T23:36:53.833Z,99172.00
2023-09-13T23:39:21.074Z,99182.09
2023-09-13T23:41:48.420Z,99185.81
2023-09-13T23:44:15.767Z,99180.72
2023-09-13T23:46:43.411Z,99189.34
2023-09-13T23:49:10.827Z,99182.94
2023-09-13T23:51:38.082Z,99181.50
2023-09-13T23:54:05.397Z,99182.19
2023-09-13T23:56:32.764Z,99177.28
2023-09-13T23:58:59.980Z,99172.94
